Time;durP1;ratioP1;P1;durP2;ratioP2;P2;SDS_P1;SDS_P2;PMS_P1;PMS_P2;Temp;Humidity;BMP_temperature;BMP_pressure;BME280_temperature;BME280_humidity;BME280_pressure;Samples;Min_cycle;Max_cycle;Signal;HPM_P1;HPM_P2
2022/07/13 00:00:37;;;;;;;2.15;1.50;;;;;;;13.08;100.00;101329.84;4944970;28;20048;-79
2022/07/13 00:03:04;;;;;;;1.70;1.40;;;;;;;13.04;100.00;101328.19;4990087;28;20043;-80
2022/07/13 00:05:31;;;;;;;2.40;1.65;;;;;;;13.04;100.00;101322.88;4965649;28;21642;-79
2022/07/13 00:07:57;;;;;;;1.45;1.35;;;;;;;13.03;100.00;101318.47;4965983;28;20550;-77
2022/07/13 00:10:25;;;;;;;2.35;1.63;;;;;;;13.06;100.00;101320.19;4955234;28;20046;-81
2022/07/13 00:12:51;;;;;;;2.10;1.48;;;;;;;13.06;100.00;101326.38;4996727;28;20141;-79
2022/07/13 00:15:19;;;;;;;1.92;1.55;;;;;;;13.06;100.00;101330.78;4949622;28;20038;-79
2022/07/13 00:17:45;;;;;;;2.30;1.77;;;;;;;13.06;100.00;101325.50;4935778;28;20042;-80
2022/07/13 00:20:12;;;;;;;1.90;1.60;;;;;;;13.08;100.00;101328.97;4972045;28;20050;-79
2022/07/13 00:22:39;;;;;;;2.17;1.80;;;;;;;13.13;100.00;101321.81;4961625;28;20554;-78
2022/07/13 00:25:06;;;;;;;1.98;1.70;;;;;;;13.17;100.00;101324.34;4963360;28;20050;-78
2022/07/13 00:27:33;;;;;;;3.05;1.50;;;;;;;13.23;100.00;101337.53;4977021;28;20057;-78
2022/07/13 00:30:00;;;;;;;2.63;1.70;;;;;;;13.28;100.00;101336.56;4976175;28;20038;-79
2022/07/13 00:32:29;;;;;;;2.85;1.58;;;;;;;13.30;100.00;101326.81;4964374;28;20041;-80
2022/07/13 00:34:56;;;;;;;3.13;1.77;;;;;;;13.33;100.00;101327.59;4930739;28;20066;-80
2022/07/13 00:37:23;;;;;;;1.92;1.45;;;;;;;13.39;100.00;101327.47;4949431;28;20047;-78
2022/07/13 00:39:49;;;;;;;2.40;1.70;;;;;;;13.44;100.00;101322.94;4937629;28;20051;-78
2022/07/13 00:42:16;;;;;;;2.15;1.75;;;;;;;13.52;100.00;101322.75;4962064;28;20489;-78
2022/07/13 00:44:43;;;;;;;2.22;1.60;;;;;;;13.58;100.00;101313.81;4942854;28;20046;-78
2022/07/13 00:47:10;;;;;;;3.42;1.80;;;;;;;13.62;100.00;101318.13;4949141;28;20042;-79
2022/07/13 00:49:37;;;;;;;2.15;1.83;;;;;;;13.66;100.00;101315.38;4934782;28;21044;-78
2022/07/13 00:52:04;;;;;;;2.38;1.63;;;;;;;13.69;100.00;101311.75;4967326;28;20126;-79
2022/07/13 00:54:31;;;;;;;2.22;1.63;;;;;;;13.70;100.00;101310.84;4950522;28;20058;-77
2022/07/13 00:56:59;;;;;;;2.25;1.70;;;;;;;13.73;100.00;101308.16;4946208;28;20082;-79
2022/07/13 00:59:26;;;;;;;2.20;1.95;;;;;;;13.76;100.00;101306.28;4949903;28;20489;-80
2022/07/13 01:01:53;;;;;;;2.10;1.70;;;;;;;13.80;100.00;101299.13;4963511;28;20049;-78
2022/07/13 01:04:23;;;;;;;2.03;1.50;;;;;;;13.82;100.00;101305.28;4946984;28;20138;-80
2022/07/13 01:06:54;;;;;;;2.25;1.55;;;;;;;13.85;100.00;101309.63;4935731;28;20066;-79
2022/07/13 01:09:22;;;;;;;2.30;1.70;;;;;;;13.88;100.00;101305.13;4955125;28;20055;-78
2022/07/13 01:11:50;;;;;;;2.20;1.90;;;;;;;13.92;100.00;101293.50;4934995;28;20043;-79
2022/07/13 01:14:17;;;;;;;2.20;1.50;;;;;;;13.95;100.00;101295.22;4971851;28;20428;-78
2022/07/13 01:16:44;;;;;;;2.13;1.80;;;;;;;13.97;100.00;101294.28;4954524;28;20043;-78
2022/07/13 01:19:12;;;;;;;4.22;2.13;;;;;;;13.98;100.00;101298.69;4953198;28;20508;-79
2022/07/13 01:21:44;;;;;;;1.85;1.50;;;;;;;14.00;100.00;101295.97;4935511;28;20046;-78
2022/07/13 01:24:11;;;;;;;2.03;1.60;;;;;;;14.02;100.00;101284.41;4948797;28;20057;-79
2022/07/13 01:26:38;;;;;;;1.75;1.48;;;;;;;14.05;100.00;101280.81;4960918;28;20047;-78
2022/07/13 01:29:06;;;;;;;2.60;1.58;;;;;;;14.08;100.00;101270.09;4979787;28;20039;-79
2022/07/13 01:31:40;;;;;;;2.67;2.00;;;;;;;14.12;100.00;101271.75;4977356;28;20045;-77
2022/07/13 01:34:08;;;;;;;2.17;1.88;;;;;;;14.15;100.00;101274.34;4978450;28;20081;-78
2022/07/13 01:36:35;;;;;;;2.45;1.60;;;;;;;14.16;100.00;101283.19;4978179;28;20045;-78
2022/07/13 01:39:04;;;;;;;2.35;1.92;;;;;;;14.16;100.00;101284.06;4972445;28;20049;-78
2022/07/13 01:41:30;;;;;;;1.98;1.70;;;;;;;14.18;100.00;101282.22;4987757;28;20121;-78
2022/07/13 01:43:57;;;;;;;2.38;1.85;;;;;;;14.20;100.00;101282.19;4952493;28;20122;-79
2022/07/13 01:46:25;;;;;;;2.08;1.50;;;;;;;14.24;100.00;101284.75;4990836;28;20045;-78
2022/07/13 01:48:53;;;;;;;2.30;1.50;;;;;;;14.24;100.00;101292.72;4958124;28;20034;-78
2022/07/13 01:51:20;;;;;;;1.92;1.52;;;;;;;14.24;100.00;101290.06;4956349;28;20073;-79
2022/07/13 01:53:47;;;;;;;2.10;1.63;;;;;;;14.24;100.00;101289.19;4960547;28;20038;-80
2022/07/13 01:56:14;;;;;;;2.10;1.90;;;;;;;14.24;100.00;101281.22;4972636;28;20043;-78
2022/07/13 01:58:43;;;;;;;2.15;1.85;;;;;;;14.25;100.00;101280.31;4979842;28;20061;-78
2022/07/13 02:01:09;;;;;;;3.00;1.50;;;;;;;14.27;100.00;101286.44;4951939;28;20038;-78
2022/07/13 02:03:36;;;;;;;2.65;1.98;;;;;;;14.26;100.00;101285.56;4953130;28;20046;-79
2022/07/13 02:06:05;;;;;;;2.40;1.60;;;;;;;14.25;100.00;101283.81;4999782;28;20050;-80
2022/07/13 02:08:32;;;;;;;2.10;1.60;;;;;;;14.28;100.00;101277.56;4973283;28;20405;-79
2022/07/13 02:10:58;;;;;;;2.05;1.42;;;;;;;14.29;100.00;101279.28;4970960;28;20053;-78
2022/07/13 02:13:25;;;;;;;2.00;1.40;;;;;;;14.29;100.00;101274.88;4973760;28;20038;-78
2022/07/13 02:15:52;;;;;;;1.90;1.63;;;;;;;14.34;100.00;101264.09;4968991;28;20077;-78
2022/07/13 02:18:18;;;;;;;1.90;1.40;;;;;;;14.36;100.00;101270.25;4958029;28;20050;-78
2022/07/13 02:20:45;;;;;;;1.90;1.70;;;;;;;14.37;100.00;101267.53;4972438;28;20125;-77
2022/07/13 02:23:12;;;;;;;1.90;1.65;;;;;;;14.44;100.00;101270.91;4962876;28;20543;-80
2022/07/13 02:25:39;;;;;;;2.83;1.60;;;;;;;14.44;100.00;101262.06;4950975;28;20049;-78
2022/07/13 02:28:08;;;;;;;1.88;1.60;;;;;;;14.45;100.00;101270.03;4968704;28;20883;-77
2022/07/13 02:30:35;;;;;;;1.88;1.48;;;;;;;14.48;100.00;101263.78;4982361;28;20038;-78
2022/07/13 02:33:02;;;;;;;2.00;1.67;;;;;;;14.50;100.00;101246.88;4940363;28;20043;-78
2022/07/13 02:35:29;;;;;;;1.77;1.55;;;;;;;14.52;100.00;101247.69;4961555;28;20050;-78
2022/07/13 02:37:56;;;;;;;2.05;1.85;;;;;;;14.55;100.00;101255.59;5011413;23;20066;-80
2022/07/13 02:40:23;;;;;;;2.67;1.77;;;;;;;14.58;100.00;101258.16;4944200;28;20510;-80
2022/07/13 02:42:49;;;;;;;1.92;1.50;;;;;;;14.58;100.00;101258.16;4929881;29;20060;-80
2022/07/13 02:45:16;;;;;;;2.58;1.83;;;;;;;14.59;100.00;101248.41;4938699;29;20067;-80
2022/07/13 02:47:43;;;;;;;2.00;1.55;;;;;;;14.59;100.00;101257.25;4921321;29;20051;-80
2022/07/13 02:50:10;;;;;;;2.60;1.80;;;;;;;14.63;100.00;101255.41;4936065;29;20104;-80
2022/07/13 02:52:37;;;;;;;3.95;2.10;;;;;;;14.65;100.00;101248.25;4924229;29;20562;-80
2022/07/13 02:55:04;;;;;;;5.28;2.17;;;;;;;14.67;100.00;101237.56;4954477;28;20140;-78
2022/07/13 02:57:31;;;;;;;2.95;2.13;;;;;;;14.66;100.00;101231.38;4940066;29;20683;-79
2022/07/13 02:59:58;;;;;;;2.78;1.60;;;;;;;14.67;100.00;101233.09;4923362;29;20050;-80
2022/07/13 03:02:25;;;;;;;2.35;1.60;;;;;;;14.68;100.00;101240.16;4941797;28;20043;-80
2022/07/13 03:04:51;;;;;;;4.10;1.80;;;;;;;14.71;100.00;101247.19;4923415;29;20047;-81
2022/07/13 03:07:18;;;;;;;3.10;1.90;;;;;;;14.72;100.00;101240.97;4946651;29;20047;-81
2022/07/13 03:09:45;;;;;;;2.22;1.80;;;;;;;14.72;100.00;101251.59;5016040;23;20564;-82
2022/07/13 03:12:12;;;;;;;5.15;4.07;;;;;;;14.74;100.00;101240.00;4980484;23;21523;-80
2022/07/13 03:14:39;;;;;;;6.75;4.35;;;;;;;14.76;100.00;101234.63;4945861;28;21439;-80
2022/07/13 03:17:05;;;;;;;5.30;3.65;;;;;;;14.79;100.00;101232.75;4939350;28;20050;-80
2022/07/13 03:19:33;;;;;;;3.33;2.50;;;;;;;14.81;100.00;101224.75;4936619;28;20102;-80
2022/07/13 03:22:02;;;;;;;2.97;2.13;;;;;;;14.84;100.00;101224.66;4949813;28;20134;-80
2022/07/13 03:24:29;;;;;;;2.88;2.17;;;;;;;14.88;100.00;101212.97;4947061;28;20414;-80
2022/07/13 03:26:56;;;;;;;2.40;1.90;;;;;;;14.89;100.00;101212.09;4949358;28;20051;-81
2022/07/13 03:29:23;;;;;;;2.92;1.88;;;;;;;14.92;100.00;101201.34;4935511;28;20082;-79
2022/07/13 03:31:49;;;;;;;2.15;1.77;;;;;;;14.94;100.00;101210.16;4951600;28;20035;-80
2022/07/13 03:34:17;;;;;;;1.63;1.50;;;;;;;14.95;100.00;101211.03;4932773;28;20126;-80
2022/07/13 03:36:44;;;;;;;2.47;1.67;;;;;;;14.97;100.00;101219.84;4930409;28;20043;-79
2022/07/13 03:39:11;;;;;;;2.05;1.60;;;;;;;14.98;100.00;101222.47;4931280;28;20043;-79
2022/07/13 03:41:38;;;;;;;1.75;1.50;;;;;;;15.00;100.00;101217.09;4934758;28;20057;-80
2022/07/13 03:44:05;;;;;;;2.45;1.60;;;;;;;15.02;100.00;101208.13;4964514;28;20041;-80
2022/07/13 03:46:31;;;;;;;1.63;1.52;;;;;;;15.03;100.00;101207.22;4946219;28;20593;-81
2022/07/13 03:48:58;;;;;;;2.72;1.50;;;;;;;15.06;100.00;101195.63;4918344;28;20109;-80
2022/07/13 03:51:25;;;;;;;2.88;2.03;;;;;;;15.09;100.00;101191.06;4948744;28;20046;-80
2022/07/13 03:53:52;;;;;;;2.95;1.83;;;;;;;15.16;100.00;101197.94;4934648;28;20043;-81
2022/07/13 03:56:19;;;;;;;1.70;1.40;;;;;;;15.15;100.00;101203.31;4950217;28;20070;-80
2022/07/13 03:58:46;;;;;;;2.65;1.80;;;;;;;15.17;100.00;101207.66;4950909;28;20544;-80
2022/07/13 04:01:14;;;;;;;2.00;1.58;;;;;;;15.23;100.00;101216.41;4965115;28;20046;-80
2022/07/13 04:03:40;;;;;;;2.42;1.73;;;;;;;15.28;100.00;101223.31;4936230;28;20130;-79
2022/07/13 04:06:07;;;;;;;3.20;1.60;;;;;;;15.33;100.00;101220.50;4960351;28;20106;-80
2022/07/13 04:08:34;;;;;;;2.05;1.73;;;;;;;15.40;100.00;101211.41;4969836;28;20118;-79
2022/07/13 04:11:02;;;;;;;2.25;1.77;;;;;;;15.48;100.00;101207.59;4950640;28;20489;-79
2022/07/13 04:13:30;;;;;;;2.67;1.88;;;;;;;15.54;100.00;101210.97;4946690;28;20054;-81
2022/07/13 04:15:56;;;;;;;2.20;1.98;;;;;;;15.59;100.00;101198.38;4948378;28;20122;-80
2022/07/13 04:18:23;;;;;;;2.47;1.75;;;;;;;15.65;100.00;101207.09;4970714;28;20542;-80
2022/07/13 04:20:50;;;;;;;2.10;1.80;;;;;;;15.70;100.00;101206.91;4949257;28;20062;-80
2022/07/13 04:23:16;;;;;;;2.30;1.95;;;;;;;15.77;100.00;101196.00;4938910;28;20043;-81
2022/07/13 04:25:44;;;;;;;1.80;1.63;;;;;;;15.85;100.00;101195.75;4933960;28;20035;-81
2022/07/13 04:28:11;;;;;;;2.10;1.83;;;;;;;15.91;100.00;101192.03;4940165;28;20120;-81
2022/07/13 04:30:38;;;;;;;3.03;2.00;;;;;;;15.99;100.00;101195.28;4947771;28;20047;-81
2022/07/13 04:33:04;;;;;;;1.88;1.60;;;;;;;16.05;100.00;101192.41;4938873;28;20046;-82
2022/07/13 04:35:31;;;;;;;1.98;1.77;;;;;;;16.08;100.00;101186.09;4935574;28;20035;-80
2022/07/13 04:37:58;;;;;;;1.65;1.42;;;;;;;16.13;100.00;101186.78;4923248;28;20174;-79
2022/07/13 04:40:28;;;;;;;2.30;2.10;;;;;;;16.19;100.00;101194.59;4950392;28;20038;-79
2022/07/13 04:42:54;;;;;;;2.00;1.58;;;;;;;16.25;100.00;101186.38;4956429;28;20043;-80
2022/07/13 04:45:22;;;;;;;2.35;2.00;;;;;;;16.31;100.00;101188.81;4939373;28;20062;-79
2022/07/13 04:47:49;;;;;;;1.80;1.67;;;;;;;16.40;100.00;101188.50;4944076;28;20483;-80
2022/07/13 04:50:16;;;;;;;2.05;1.85;;;;;;;16.48;100.00;101180.19;4940465;28;20404;-79
2022/07/13 04:52:43;;;;;;;1.70;1.60;;;;;;;16.55;100.00;101189.72;4960888;28;20126;-80
2022/07/13 04:55:09;;;;;;;3.10;2.25;;;;;;;16.63;100.00;101189.44;4976667;28;20033;-81
2022/07/13 04:57:36;;;;;;;7.68;2.47;;;;;;;16.73;100.00;101188.19;4938901;28;20042;-80
2022/07/13 05:00:06;;;;;;;4.05;1.80;;;;;;;16.79;100.00;101191.50;4943616;28;20043;-81
2022/07/13 05:02:32;;;;;;;2.05;1.85;;;;;;;16.84;100.00;101186.88;4953956;28;20046;-82
2022/07/13 05:04:59;;;;;;;2.05;1.70;;;;;;;16.91;100.00;101189.31;4952874;28;20074;-81
2022/07/13 05:07:26;;;;;;;2.03;1.75;;;;;;;16.99;100.00;101188.09;4956137;28;20038;-81
2022/07/13 05:09:53;;;;;;;2.13;1.70;;;;;;;17.06;100.00;101191.38;4958275;28;20043;-82
2022/07/13 05:12:20;;;;;;;2.60;2.22;;;;;;;17.14;100.00;101202.63;4958663;28;20038;-79
2022/07/13 05:14:47;;;;;;;3.08;2.10;;;;;;;17.20;100.00;101197.06;4972551;28;20170;-78
2022/07/13 05:17:14;;;;;;;3.00;2.10;;;;;;;17.24;100.00;101204.03;4925989;28;20066;-80
2022/07/13 05:19:40;;;;;;;2.42;2.05;;;;;;;17.26;100.00;101195.97;4941213;28;20057;-81
2022/07/13 05:22:07;;;;;;;2.35;2.00;;;;;;;17.31;97.67;101193.94;4955289;28;20057;-79
2022/07/13 05:24:43;;;;;;;2.60;2.00;;;;;;;17.32;98.24;101190.34;4936955;28;20050;-78
2022/07/13 05:27:11;;;;;;;2.50;1.95;;;;;;;17.40;98.73;101191.81;4942183;28;20090;-80
2022/07/13 05:29:38;;;;;;;3.97;2.60;;;;;;;17.44;98.47;101195.22;4955973;28;20039;-81
2022/07/13 05:32:05;;;;;;;3.70;2.00;;;;;;;17.52;96.85;101197.59;4955076;28;20065;-81
2022/07/13 05:34:32;;;;;;;2.67;2.17;;;;;;;17.60;93.72;101188.31;4938977;28;20051;-80
2022/07/13 05:36:59;;;;;;;2.10;1.83;;;;;;;17.65;93.94;101196.13;4948878;28;20046;-82
2022/07/13 05:39:26;;;;;;;2.53;2.17;;;;;;;17.76;94.12;101193.06;4954560;28;20074;-79
2022/07/13 05:41:52;;;;;;;4.20;2.30;;;;;;;17.85;93.16;101195.34;4937983;28;20186;-78
2022/07/13 05:44:19;;;;;;;4.90;2.63;;;;;;;17.91;92.36;101189.75;4934755;28;20043;-81
2022/07/13 05:46:45;;;;;;;4.88;2.40;;;;;;;18.04;92.72;101190.09;4918994;28;20127;-78
2022/07/13 05:49:12;;;;;;;2.30;1.95;;;;;;;18.22;89.90;101198.16;4951405;28;20518;-79
2022/07/13 05:51:39;;;;;;;2.47;2.03;;;;;;;18.23;89.72;101186.53;4930841;28;20166;-79
2022/07/13 05:54:06;;;;;;;2.85;2.20;;;;;;;18.43;87.73;101192.84;4933781;28;20047;-79
2022/07/13 05:56:52;;;;;;;3.90;2.53;;;;;;;18.54;88.12;101195.88;4919158;28;20108;-78
2022/07/13 05:59:19;;;;;;;2.28;2.08;;;;;;;18.59;87.40;101195.69;4931880;28;20058;-79
2022/07/13 06:01:46;;;;;;;3.38;1.90;;;;;;;18.64;86.03;101197.19;4932487;28;20051;-80
2022/07/13 06:04:13;;;;;;;2.22;1.95;;;;;;;18.70;86.57;101191.63;4947997;28;20035;-79
2022/07/13 06:06:40;;;;;;;4.03;2.25;;;;;;;18.85;84.96;101190.03;4944932;28;20050;-80
2022/07/13 06:09:08;;;;;;;2.97;1.90;;;;;;;18.93;84.37;101192.38;4917227;28;20051;-78
2022/07/13 06:11:34;;;;;;;42.70;6.53;;;;;;;19.04;85.14;101193.59;4962876;28;20054;-81
2022/07/13 06:14:01;;;;;;;2.75;2.22;;;;;;;19.20;82.98;101185.69;4931574;28;20045;-80
2022/07/13 06:16:28;;;;;;;3.13;1.98;;;;;;;19.27;82.65;101195.19;4948118;28;20057;-80
2022/07/13 06:18:55;;;;;;;2.67;1.90;;;;;;;19.31;82.27;101187.84;4930511;28;20102;-81
2022/07/13 06:21:21;;;;;;;2.30;2.10;;;;;;;19.47;81.64;101183.47;4925884;28;20039;-80
2022/07/13 06:23:48;;;;;;;3.42;2.20;;;;;;;19.49;81.87;101175.38;4937179;28;20047;-81
2022/07/13 06:26:15;;;;;;;3.40;2.03;;;;;;;19.57;81.14;101176.75;4950469;28;20038;-79
2022/07/13 06:28:42;;;;;;;2.05;1.80;;;;;;;19.60;81.76;101181.13;4929257;28;20059;-80
2022/07/13 06:31:09;;;;;;;2.42;2.20;;;;;;;19.80;81.50;101180.97;4929658;28;20034;-80
2022/07/13 06:33:36;;;;;;;3.13;2.20;;;;;;;19.95;80.57;101182.88;4911910;28;20055;-79
2022/07/13 06:36:03;;;;;;;5.03;2.00;;;;;;;20.03;79.90;101182.50;4930523;28;20034;-79
2022/07/13 06:38:30;;;;;;;3.58;1.90;;;;;;;20.19;79.40;101174.53;4952559;28;20038;-79
2022/07/13 06:40:56;;;;;;;2.92;1.75;;;;;;;20.42;78.23;101170.59;4940729;28;20413;-81
2022/07/13 06:43:23;;;;;;;2.85;1.90;;;;;;;20.66;77.93;101180.06;4946825;28;20034;-81
2022/07/13 06:45:50;;;;;;;1.95;1.75;;;;;;;20.85;75.45;101166.50;4926273;28;20066;-79
2022/07/13 06:48:17;;;;;;;1.90;1.63;;;;;;;20.99;75.44;101163.91;4931933;28;20054;-80
2022/07/13 06:50:44;;;;;;;2.80;1.95;;;;;;;21.27;75.04;101162.38;4931741;28;20050;-80
2022/07/13 06:53:11;;;;;;;2.00;1.83;;;;;;;21.43;73.42;101157.00;4935360;28;20050;-81
2022/07/13 06:55:37;;;;;;;176.35;28.52;;;;;;;21.58;71.26;101161.47;4961039;28;20535;-80
2022/07/13 06:58:04;;;;;;;2.80;2.17;;;;;;;21.64;71.14;101158.44;4950695;28;20242;-79
2022/07/13 07:00:31;;;;;;;2.67;1.80;;;;;;;21.61;70.25;101156.81;4942345;28;20169;-80
2022/07/13 07:02:58;;;;;;;3.05;2.00;;;;;;;21.67;70.81;101141.25;4931176;28;20050;-79
2022/07/13 07:05:26;;;;;;;2.70;1.70;;;;;;;21.63;70.83;101156.72;4915693;28;20047;-81
2022/07/13 07:07:52;;;;;;;7.07;2.10;;;;;;;21.72;71.33;101149.94;4932653;28;20049;-79
2022/07/13 07:10:19;;;;;;;20.65;5.30;;;;;;;21.76;71.06;101154.16;4932431;28;20496;-80
2022/07/13 07:12:52;;;;;;;2.33;1.70;;;;;;;21.88;70.88;101148.06;4935129;28;20046;-77
2022/07/13 07:15:19;;;;;;;2.80;1.80;;;;;;;22.01;69.74;101145.47;4945467;28;20078;-80
2022/07/13 07:17:46;;;;;;;2.15;1.95;;;;;;;22.21;70.36;101137.09;4918367;28;20703;-80
2022/07/13 07:20:13;;;;;;;2.55;1.90;;;;;;;22.54;68.62;101133.28;4932572;28;20046;-82
2022/07/13 07:22:40;;;;;;;2.20;2.00;;;;;;;22.72;67.60;101118.66;4930489;28;20057;-79
2022/07/13 07:25:10;;;;;;;2.53;1.92;;;;;;;22.92;66.10;101123.63;4915809;28;20043;-79
2022/07/13 07:27:36;;;;;;;2.65;2.45;;;;;;;22.97;66.11;101124.22;4975048;28;20043;-79
2022/07/13 07:30:05;;;;;;;2.50;1.95;;;;;;;23.11;65.73;101127.81;4924022;28;20065;-81
2022/07/13 07:32:33;;;;;;;2.53;1.92;;;;;;;23.23;63.96;101113.56;4939254;28;20039;-79
2022/07/13 07:35:00;;;;;;;2.08;1.80;;;;;;;23.34;66.44;101111.00;4951823;28;20043;-78
2022/07/13 07:37:27;;;;;;;2.20;1.90;;;;;;;23.54;65.88;101115.94;4939388;28;20050;-81
2022/07/13 07:39:53;;;;;;;2.72;1.83;;;;;;;23.76;60.99;101122.59;4970192;28;20065;-80
2022/07/13 07:42:21;;;;;;;1.85;1.67;;;;;;;23.90;61.43;101117.13;4952647;28;20104;-79
2022/07/13 07:44:48;;;;;;;1.95;1.50;;;;;;;24.09;61.80;101109.47;4951206;28;20043;-78
2022/07/13 07:47:15;;;;;;;1.70;1.60;;;;;;;24.31;62.22;101118.78;4948658;28;20103;-79
2022/07/13 07:49:43;;;;;;;10.82;3.13;;;;;;;24.59;61.24;101110.47;4936977;28;20142;-80
2022/07/13 07:52:09;;;;;;;3.65;1.98;;;;;;;24.79;60.03;101113.56;4970357;28;20046;-79
2022/07/13 07:54:56;;;;;;;2.05;1.65;;;;;;;24.90;58.76;101108.25;4938740;28;20041;-81
2022/07/13 07:57:27;;;;;;;2.38;1.90;;;;;;;25.14;59.67;101119.09;4954526;28;20050;-80
2022/07/13 07:59:54;;;;;;;29.92;5.85;;;;;;;25.05;58.78;101117.06;4953920;28;20408;-80
2022/07/13 08:02:21;;;;;;;4.78;2.40;;;;;;;25.10;58.17;101109.50;4952687;28;20102;-79
2022/07/13 08:04:49;;;;;;;3.53;2.53;;;;;;;25.20;59.02;101105.13;4950030;28;20724;-79
2022/07/13 08:07:15;;;;;;;4.47;2.20;;;;;;;25.16;58.84;101107.22;4950276;28;20047;-79
2022/07/13 08:09:42;;;;;;;3.95;1.80;;;;;;;25.09;59.54;101111.34;4931716;28;20039;-79
2022/07/13 08:12:09;;;;;;;2.55;1.80;;;;;;;25.22;60.12;101105.88;4916517;28;20042;-81
2022/07/13 08:14:36;;;;;;;3.58;1.88;;;;;;;25.05;56.79;101106.25;4927662;28;20424;-79
2022/07/13 08:17:04;;;;;;;2.20;1.80;;;;;;;24.73;57.07;101101.38;4930356;28;20034;-79
2022/07/13 08:19:30;;;;;;;3.22;1.55;;;;;;;24.73;57.55;101100.50;4928008;28;20421;-79
2022/07/13 08:22:07;;;;;;;2.85;1.80;;;;;;;24.61;57.22;101103.09;4945967;28;20046;-78
2022/07/13 08:24:34;;;;;;;2.85;2.08;;;;;;;24.78;58.80;101107.28;4925201;28;20097;-79
2022/07/13 08:27:01;;;;;;;2.58;1.85;;;;;;;24.80;58.36;101099.06;4910440;28;20074;-81
2022/07/13 08:29:28;;;;;;;2.60;2.10;;;;;;;24.86;57.02;101098.63;4933360;28;20144;-81
2022/07/13 08:31:55;;;;;;;16.98;3.33;;;;;;;25.04;57.42;101097.28;4921801;28;20142;-79
2022/07/13 08:39:53;;;;;;;8.07;3.30;;;;;;;24.98;58.01;101103.13;4949575;28;20509;-81
2022/07/13 08:42:20;;;;;;;2.10;1.88;;;;;;;25.05;55.63;101092.75;4935805;28;20397;-82
2022/07/13 08:44:47;;;;;;;2.90;1.70;;;;;;;25.12;57.13;101086.78;4937935;28;20611;-81
2022/07/13 08:47:14;;;;;;;5.50;2.60;;;;;;;25.17;57.94;101089.16;4918042;28;20065;-80
2022/07/13 08:49:41;;;;;;;2.15;1.85;;;;;;;25.18;55.50;101089.03;4948149;28;20606;-81
2022/07/13 08:52:08;;;;;;;2.50;1.80;;;;;;;25.21;55.52;101086.06;4932292;28;20039;-81
2022/07/13 08:54:34;;;;;;;4.70;2.28;;;;;;;25.37;55.09;101093.03;4913488;28;20051;-81
2022/07/13 08:57:01;;;;;;;2.15;1.85;;;;;;;25.49;53.93;101092.13;4947307;28;20047;-80
2022/07/13 08:59:28;;;;;;;1.90;1.70;;;;;;;25.66;55.26;101089.00;4948636;28;20039;-79
2022/07/13 09:01:55;;;;;;;2.03;1.83;;;;;;;25.80;54.79;101085.22;4928608;28;20046;-83
2022/07/13 09:04:22;;;;;;;2.53;1.90;;;;;;;25.92;55.33;101083.44;4934328;28;20043;-81
2022/07/13 09:06:49;;;;;;;3.60;1.98;;;;;;;26.19;54.51;101074.97;4914609;28;20487;-80
2022/07/13 09:09:33;;;;;;;2.72;2.00;;;;;;;26.31;52.36;101069.44;4930939;28;20114;-80
2022/07/13 09:12:22;;;;;;;2.10;1.80;;;;;;;26.60;53.75;101072.56;4947246;28;20031;-80
2022/07/13 09:14:52;;;;;;;3.67;2.10;;;;;;;26.82;52.32;101060.81;4930904;28;20085;-82
2022/07/13 09:17:42;;;;;;;3.13;1.80;;;;;;;26.79;51.21;101062.91;4929886;28;20039;-82
2022/07/13 09:20:12;;;;;;;2.28;2.00;;;;;;;26.78;51.23;101064.75;4944823;28;20051;-82
2022/07/13 09:22:46;;;;;;;4.60;1.90;;;;;;;27.00;51.44;101057.56;4934920;28;20035;-81
2022/07/13 09:25:39;;;;;;;1.75;1.60;;;;;;;27.23;50.69;101051.09;4932589;28;20046;-81
2022/07/13 09:28:09;;;;;;;2.80;1.92;;;;;;;27.52;50.54;101043.22;4930968;28;20055;-80
2022/07/13 09:30:41;;;;;;;1.83;1.60;;;;;;;27.73;48.52;101048.66;4929954;28;20042;-81
2022/07/13 09:33:08;;;;;;;2.92;1.70;;;;;;;27.91;46.92;101048.91;4919927;28;20186;-80
2022/07/13 09:35:49;;;;;;;2.13;1.90;;;;;;;27.81;46.17;101048.88;4936341;28;20045;-81
2022/07/13 09:38:38;;;;;;;1.60;1.50;;;;;;;27.69;45.73;101041.78;4935934;28;20515;-79
2022/07/13 09:41:14;;;;;;;2.00;1.60;;;;;;;27.59;45.55;101035.41;4946284;28;20077;-80
2022/07/13 09:47:00;;;;;;;1.77;1.63;;;;;;;27.55;46.53;101032.09;4950962;28;20039;-78
2022/07/13 09:49:41;;;;;;;1.95;1.60;;;;;;;27.73;46.83;101033.22;4961263;23;20138;-80
2022/07/13 09:52:12;;;;;;;2.10;1.90;;;;;;;28.18;46.14;101026.63;4951936;28;20038;-79
2022/07/13 09:54:41;;;;;;;2.22;1.60;;;;;;;28.56;46.49;101026.81;4949893;28;20150;-80
2022/07/13 09:57:10;;;;;;;3.70;1.90;;;;;;;28.42;43.12;101024.47;4946806;29;20031;-80
2022/07/13 09:59:41;;;;;;;1.77;1.52;;;;;;;28.73;43.73;101019.81;4930699;29;20043;-80
2022/07/13 10:02:08;;;;;;;2.10;1.70;;;;;;;29.01;42.80;101018.22;4928071;29;20040;-79
2022/07/13 10:04:35;;;;;;;3.20;1.95;;;;;;;29.14;42.20;101017.91;4939523;29;20075;-80
2022/07/13 10:07:15;;;;;;;2.85;1.80;;;;;;;28.96;42.38;101012.31;4925427;29;20094;-79
2022/07/13 10:09:42;;;;;;;1.90;1.70;;;;;;;29.12;42.56;101015.34;4927722;29;20047;-79
2022/07/13 10:12:11;;;;;;;1.58;1.42;;;;;;;28.88;40.97;101010.28;4908677;29;20051;-79
2022/07/13 10:14:39;;;;;;;2.20;1.88;;;;;;;28.73;41.52;101017.09;4937860;29;20134;-77
2022/07/13 10:17:14;;;;;;;2.67;1.60;;;;;;;28.82;42.37;101013.53;4922583;29;20465;-78
2022/07/13 10:20:08;;;;;;;2.28;1.80;;;;;;;29.15;41.61;101022.34;4917035;29;20066;-78
2022/07/13 10:22:38;;;;;;;2.22;1.70;;;;;;;29.23;41.11;101018.91;4902063;29;20131;-79
2022/07/13 10:25:06;;;;;;;2.90;1.90;;;;;;;29.07;39.60;101014.03;4925425;29;20039;-77
2022/07/13 10:27:35;;;;;;;2.90;1.80;;;;;;;29.17;39.89;101004.88;4894581;29;20035;-80
2022/07/13 10:30:23;;;;;;;2.67;1.80;;;;;;;29.56;40.02;101020.34;4925960;29;20047;-79
2022/07/13 10:32:50;;;;;;;3.60;2.05;;;;;;;29.49;38.98;101008.28;4926347;29;20043;-79
2022/07/13 10:35:20;;;;;;;2.00;1.80;;;;;;;29.75;39.04;101008.56;4937047;29;20043;-78
2022/07/13 10:37:56;;;;;;;2.30;2.10;;;;;;;29.99;38.24;100989.84;4939816;28;20126;-79
2022/07/13 10:40:32;;;;;;;3.65;2.05;;;;;;;30.53;38.35;100980.03;4909226;29;20054;-80
2022/07/13 10:43:04;;;;;;;3.08;1.63;;;;;;;30.58;37.74;100991.31;4907288;29;20043;-79
2022/07/13 10:45:40;;;;;;;2.40;2.20;;;;;;;30.89;38.20;100988.28;4927898;29;20410;-78
2022/07/13 10:48:32;;;;;;;2.47;2.17;;;;;;;31.15;36.07;100983.75;4907688;29;20434;-79
2022/07/13 10:51:08;;;;;;;3.20;2.35;;;;;;;30.30;36.33;100995.94;4909206;29;20079;-79
2022/07/13 10:53:53;;;;;;;2.10;1.90;;;;;;;29.71;37.88;101002.56;4933749;29;20051;-79
2022/07/13 10:57:16;;;;;;;2.75;1.90;;;;;;;29.51;36.50;101006.31;4919150;29;20074;-80
2022/07/13 10:59:50;;;;;;;2.28;1.70;;;;;;;29.23;36.93;100991.69;4917683;29;20214;-78
2022/07/13 11:02:50;;;;;;;2.20;2.00;;;;;;;29.15;37.35;101001.44;4914724;29;20770;-78
2022/07/13 11:05:25;;;;;;;1.70;1.60;;;;;;;28.92;37.55;101001.84;4909974;29;20035;-78
2022/07/13 11:07:52;;;;;;;2.50;2.00;;;;;;;28.94;35.89;100997.16;4928001;29;20039;-80
2022/07/13 11:10:26;;;;;;;4.32;2.25;;;;;;;29.14;35.58;100999.72;4930526;29;20057;-77
2022/07/13 11:13:09;;;;;;;2.30;1.95;;;;;;;29.18;35.87;100997.59;4930167;29;20071;-82
2022/07/13 11:15:52;;;;;;;2.58;2.30;;;;;;;29.54;35.98;100986.97;4938009;29;20405;-79
2022/07/13 11:18:25;;;;;;;7.28;2.88;;;;;;;29.69;35.13;100977.34;4925367;29;20389;-79
2022/07/13 11:20:58;;;;;;;2.30;1.98;;;;;;;29.79;34.13;100980.03;4938821;29;20043;-79
2022/07/13 11:26:53;;;;;;;3.90;2.00;;;;;;;29.75;35.32;100978.59;4916072;29;20036;-76
2022/07/13 11:29:48;;;;;;;3.92;2.35;;;;;;;29.71;35.97;100968.03;4929362;29;20424;-78
2022/07/13 11:32:20;;;;;;;2.25;1.90;;;;;;;29.50;35.99;100967.34;4925826;29;20039;-78
2022/07/13 11:34:47;;;;;;;2.75;2.53;;;;;;;29.40;36.54;100963.75;4924273;29;20134;-78
2022/07/13 11:37:14;;;;;;;2.60;2.40;;;;;;;29.32;36.74;100966.34;4935643;29;20071;-81
2022/07/13 11:39:40;;;;;;;4.28;2.38;;;;;;;29.24;36.97;100956.19;4929518;29;22016;-78
2022/07/13 11:42:07;;;;;;;3.55;1.90;;;;;;;29.45;37.21;100956.03;4931484;29;20043;-79